sensor_id;sensor_type;location;lat;lon;timestamp;P1;durP1;ratioP1;P2;durP2;ratioP2
8397;SDS011;4236;54.504;9.588;2023-07-31T00:00:57;14.00;;;13.20;;
8397;SDS011;4236;54.504;9.588;2023-07-31T00:03:25;14.23;;;13.13;;
8397;SDS011;4236;54.504;9.588;2023-07-31T00:05:52;14.60;;;13.60;;
8397;SDS011;4236;54.504;9.588;2023-07-31T00:08:20;14.20;;;12.83;;
8397;SDS011;4236;54.504;9.588;2023-07-31T00:10:50;14.30;;;13.27;;
8397;SDS011;4236;54.504;9.588;2023-07-31T00:13:18;14.30;;;13.47;;
8397;SDS011;4236;54.504;9.588;2023-07-31T00:15:45;14.90;;;13.80;;
8397;SDS011;4236;54.504;9.588;2023-07-31T00:18:13;15.20;;;13.90;;
8397;SDS011;4236;54.504;9.588;2023-07-31T00:20:41;13.93;;;13.10;;
8397;SDS011;4236;54.504;9.588;2023-07-31T00:23:08;16.20;;;14.77;;
8397;SDS011;4236;54.504;9.588;2023-07-31T00:25:36;15.50;;;14.20;;
8397;SDS011;4236;54.504;9.588;2023-07-31T00:28:05;15.50;;;14.23;;
8397;SDS011;4236;54.504;9.588;2023-07-31T00:30:32;15.40;;;14.17;;
8397;SDS011;4236;54.504;9.588;2023-07-31T00:33:00;14.83;;;13.63;;
8397;SDS011;4236;54.504;9.588;2023-07-31T00:35:27;14.10;;;13.40;;
8397;SDS011;4236;54.504;9.588;2023-07-31T00:37:56;14.53;;;13.67;;
8397;SDS011;4236;54.504;9.588;2023-07-31T00:40:23;14.30;;;13.10;;
8397;SDS011;4236;54.504;9.588;2023-07-31T00:42:51;14.00;;;13.20;;
8397;SDS011;4236;54.504;9.588;2023-07-31T00:45:19;13.57;;;12.60;;
8397;SDS011;4236;54.504;9.588;2023-07-31T00:47:49;13.13;;;12.43;;
8397;SDS011;4236;54.504;9.588;2023-07-31T00:50:16;13.33;;;12.60;;
8397;SDS011;4236;54.504;9.588;2023-07-31T00:52:44;14.30;;;12.67;;
8397;SDS011;4236;54.504;9.588;2023-07-31T00:55:12;12.97;;;11.90;;
8397;SDS011;4236;54.504;9.588;2023-07-31T00:57:39;12.93;;;12.20;;
8397;SDS011;4236;54.504;9.588;2023-07-31T01:00:08;13.67;;;12.67;;
8397;SDS011;4236;54.504;9.588;2023-07-31T01:02:37;13.23;;;12.47;;
8397;SDS011;4236;54.504;9.588;2023-07-31T01:05:05;12.50;;;11.70;;
8397;SDS011;4236;54.504;9.588;2023-07-31T01:07:35;13.40;;;12.67;;
8397;SDS011;4236;54.504;9.588;2023-07-31T01:10:07;12.80;;;12.20;;
8397;SDS011;4236;54.504;9.588;2023-07-31T01:12:35;12.67;;;12.00;;
8397;SDS011;4236;54.504;9.588;2023-07-31T01:15:05;12.17;;;11.53;;
8397;SDS011;4236;54.504;9.588;2023-07-31T01:17:32;13.60;;;12.70;;
8397;SDS011;4236;54.504;9.588;2023-07-31T01:20:02;12.20;;;11.60;;
8397;SDS011;4236;54.504;9.588;2023-07-31T01:22:34;12.80;;;12.10;;
8397;SDS011;4236;54.504;9.588;2023-07-31T01:25:08;14.27;;;12.80;;
8397;SDS011;4236;54.504;9.588;2023-07-31T01:27:41;12.97;;;12.27;;
8397;SDS011;4236;54.504;9.588;2023-07-31T01:30:11;12.80;;;12.10;;
8397;SDS011;4236;54.504;9.588;2023-07-31T01:32:41;12.60;;;11.80;;
8397;SDS011;4236;54.504;9.588;2023-07-31T01:35:10;13.03;;;12.20;;
8397;SDS011;4236;54.504;9.588;2023-07-31T01:37:37;14.17;;;13.03;;
8397;SDS011;4236;54.504;9.588;2023-07-31T01:40:06;14.33;;;13.13;;
8397;SDS011;4236;54.504;9.588;2023-07-31T01:42:33;14.57;;;13.90;;
8397;SDS011;4236;54.504;9.588;2023-07-31T01:45:02;14.30;;;13.40;;
8397;SDS011;4236;54.504;9.588;2023-07-31T01:47:30;13.90;;;13.23;;
8397;SDS011;4236;54.504;9.588;2023-07-31T01:49:58;14.20;;;12.80;;
8397;SDS011;4236;54.504;9.588;2023-07-31T01:52:25;14.83;;;13.80;;
8397;SDS011;4236;54.504;9.588;2023-07-31T01:54:53;13.83;;;12.90;;
8397;SDS011;4236;54.504;9.588;2023-07-31T01:57:20;13.97;;;13.17;;
8397;SDS011;4236;54.504;9.588;2023-07-31T01:59:47;14.73;;;13.77;;
8397;SDS011;4236;54.504;9.588;2023-07-31T02:02:16;13.57;;;12.93;;
8397;SDS011;4236;54.504;9.588;2023-07-31T02:04:44;14.87;;;13.90;;
8397;SDS011;4236;54.504;9.588;2023-07-31T02:07:12;15.00;;;13.90;;
8397;SDS011;4236;54.504;9.588;2023-07-31T02:09:39;14.17;;;13.33;;
8397;SDS011;4236;54.504;9.588;2023-07-31T02:12:07;13.43;;;12.87;;
8397;SDS011;4236;54.504;9.588;2023-07-31T02:14:35;14.80;;;13.33;;
8397;SDS011;4236;54.504;9.588;2023-07-31T02:17:03;15.60;;;14.47;;
8397;SDS011;4236;54.504;9.588;2023-07-31T02:19:32;12.97;;;12.27;;
8397;SDS011;4236;54.504;9.588;2023-07-31T02:21:59;15.30;;;13.90;;
8397;SDS011;4236;54.504;9.588;2023-07-31T02:24:26;14.97;;;13.77;;
8397;SDS011;4236;54.504;9.588;2023-07-31T02:26:54;13.20;;;12.50;;
8397;SDS011;4236;54.504;9.588;2023-07-31T02:29:21;14.77;;;13.70;;
8397;SDS011;4236;54.504;9.588;2023-07-31T02:31:49;14.07;;;13.17;;
8397;SDS011;4236;54.504;9.588;2023-07-31T02:34:16;14.23;;;13.40;;
8397;SDS011;4236;54.504;9.588;2023-07-31T02:36:46;13.93;;;13.13;;
8397;SDS011;4236;54.504;9.588;2023-07-31T02:39:13;15.17;;;13.90;;
8397;SDS011;4236;54.504;9.588;2023-07-31T02:41:41;15.10;;;13.83;;
8397;SDS011;4236;54.504;9.588;2023-07-31T02:44:08;14.77;;;13.87;;
8397;SDS011;4236;54.504;9.588;2023-07-31T02:46:36;14.80;;;13.70;;
8397;SDS011;4236;54.504;9.588;2023-07-31T02:49:04;14.17;;;13.43;;
8397;SDS011;4236;54.504;9.588;2023-07-31T02:51:31;14.13;;;13.27;;
8397;SDS011;4236;54.504;9.588;2023-07-31T02:54:00;14.10;;;13.30;;
8397;SDS011;4236;54.504;9.588;2023-07-31T02:56:28;13.53;;;12.70;;
8397;SDS011;4236;54.504;9.588;2023-07-31T02:58:56;14.63;;;13.63;;
8397;SDS011;4236;54.504;9.588;2023-07-31T03:01:23;14.80;;;13.87;;
8397;SDS011;4236;54.504;9.588;2023-07-31T03:03:51;15.73;;;14.43;;
8397;SDS011;4236;54.504;9.588;2023-07-31T03:06:18;14.97;;;13.70;;
8397;SDS011;4236;54.504;9.588;2023-07-31T03:08:45;16.13;;;15.03;;
8397;SDS011;4236;54.504;9.588;2023-07-31T03:11:14;15.13;;;14.30;;
8397;SDS011;4236;54.504;9.588;2023-07-31T03:13:42;14.90;;;13.93;;
8397;SDS011;4236;54.504;9.588;2023-07-31T03:16:09;15.70;;;14.80;;
8397;SDS011;4236;54.504;9.588;2023-07-31T03:18:37;16.43;;;15.23;;
8397;SDS011;4236;54.504;9.588;2023-07-31T03:21:04;16.47;;;15.00;;
8397;SDS011;4236;54.504;9.588;2023-07-31T03:23:32;15.50;;;14.30;;
8397;SDS011;4236;54.504;9.588;2023-07-31T03:26:00;15.57;;;14.30;;
8397;SDS011;4236;54.504;9.588;2023-07-31T03:28:30;15.93;;;14.30;;
8397;SDS011;4236;54.504;9.588;2023-07-31T03:30:58;14.57;;;13.87;;
8397;SDS011;4236;54.504;9.588;2023-07-31T03:33:26;15.83;;;14.93;;
8397;SDS011;4236;54.504;9.588;2023-07-31T03:35:53;17.20;;;15.90;;
8397;SDS011;4236;54.504;9.588;2023-07-31T03:38:20;16.80;;;15.30;;
8397;SDS011;4236;54.504;9.588;2023-07-31T03:40:48;17.03;;;15.70;;
8397;SDS011;4236;54.504;9.588;2023-07-31T03:43:16;17.47;;;16.13;;
8397;SDS011;4236;54.504;9.588;2023-07-31T03:45:45;17.40;;;16.10;;
8397;SDS011;4236;54.504;9.588;2023-07-31T03:48:13;16.23;;;15.00;;
8397;SDS011;4236;54.504;9.588;2023-07-31T03:50:41;16.77;;;15.67;;
8397;SDS011;4236;54.504;9.588;2023-07-31T03:53:09;16.80;;;15.50;;
8397;SDS011;4236;54.504;9.588;2023-07-31T03:55:36;18.10;;;16.60;;
8397;SDS011;4236;54.504;9.588;2023-07-31T03:58:04;20.90;;;17.47;;
8397;SDS011;4236;54.504;9.588;2023-07-31T04:00:31;17.87;;;16.67;;
8397;SDS011;4236;54.504;9.588;2023-07-31T04:03:00;17.30;;;16.20;;
8397;SDS011;4236;54.504;9.588;2023-07-31T04:05:29;19.03;;;17.63;;
8397;SDS011;4236;54.504;9.588;2023-07-31T04:07:57;19.50;;;17.80;;
8397;SDS011;4236;54.504;9.588;2023-07-31T04:10:24;19.17;;;17.50;;
8397;SDS011;4236;54.504;9.588;2023-07-31T04:12:52;17.67;;;16.37;;
8397;SDS011;4236;54.504;9.588;2023-07-31T04:15:19;18.07;;;16.50;;
8397;SDS011;4236;54.504;9.588;2023-07-31T04:17:46;17.70;;;16.40;;
8397;SDS011;4236;54.504;9.588;2023-07-31T04:20:15;17.70;;;16.43;;
8397;SDS011;4236;54.504;9.588;2023-07-31T04:22:43;19.57;;;18.23;;
8397;SDS011;4236;54.504;9.588;2023-07-31T04:25:10;19.03;;;17.80;;
8397;SDS011;4236;54.504;9.588;2023-07-31T04:27:38;17.83;;;16.53;;
8397;SDS011;4236;54.504;9.588;2023-07-31T04:30:07;17.40;;;16.10;;
8397;SDS011;4236;54.504;9.588;2023-07-31T04:32:35;17.43;;;16.17;;
8397;SDS011;4236;54.504;9.588;2023-07-31T04:35:02;17.30;;;16.17;;
8397;SDS011;4236;54.504;9.588;2023-07-31T04:37:31;18.30;;;17.10;;
8397;SDS011;4236;54.504;9.588;2023-07-31T04:39:59;16.53;;;15.33;;
8397;SDS011;4236;54.504;9.588;2023-07-31T04:42:26;15.40;;;14.50;;
8397;SDS011;4236;54.504;9.588;2023-07-31T04:44:54;16.00;;;14.57;;
8397;SDS011;4236;54.504;9.588;2023-07-31T04:47:21;15.13;;;14.33;;
8397;SDS011;4236;54.504;9.588;2023-07-31T04:49:49;15.70;;;14.67;;
8397;SDS011;4236;54.504;9.588;2023-07-31T04:52:16;14.87;;;14.23;;
8397;SDS011;4236;54.504;9.588;2023-07-31T04:54:45;16.33;;;15.23;;
8397;SDS011;4236;54.504;9.588;2023-07-31T04:57:13;15.67;;;14.73;;
8397;SDS011;4236;54.504;9.588;2023-07-31T04:59:41;17.73;;;16.50;;
8397;SDS011;4236;54.504;9.588;2023-07-31T05:02:08;17.63;;;16.63;;
8397;SDS011;4236;54.504;9.588;2023-07-31T05:04:36;18.30;;;17.13;;
8397;SDS011;4236;54.504;9.588;2023-07-31T05:07:04;18.00;;;17.07;;
8397;SDS011;4236;54.504;9.588;2023-07-31T05:09:31;18.63;;;17.47;;
8397;SDS011;4236;54.504;9.588;2023-07-31T05:12:00;18.23;;;17.03;;
8397;SDS011;4236;54.504;9.588;2023-07-31T05:14:28;17.50;;;16.50;;
8397;SDS011;4236;54.504;9.588;2023-07-31T05:16:55;19.07;;;17.57;;
8397;SDS011;4236;54.504;9.588;2023-07-31T05:19:23;18.30;;;17.30;;
8397;SDS011;4236;54.504;9.588;2023-07-31T05:21:50;18.97;;;17.73;;
8397;SDS011;4236;54.504;9.588;2023-07-31T05:24:18;19.13;;;17.50;;
8397;SDS011;4236;54.504;9.588;2023-07-31T05:26:45;18.57;;;17.10;;
8397;SDS011;4236;54.504;9.588;2023-07-31T05:29:14;19.70;;;18.50;;
8397;SDS011;4236;54.504;9.588;2023-07-31T05:31:43;19.67;;;18.47;;
8397;SDS011;4236;54.504;9.588;2023-07-31T05:34:11;18.30;;;17.33;;
8397;SDS011;4236;54.504;9.588;2023-07-31T05:36:38;20.13;;;18.70;;
8397;SDS011;4236;54.504;9.588;2023-07-31T05:39:06;21.37;;;19.97;;
8397;SDS011;4236;54.504;9.588;2023-07-31T05:41:35;20.43;;;18.97;;
8397;SDS011;4236;54.504;9.588;2023-07-31T05:44:02;19.80;;;18.50;;
8397;SDS011;4236;54.504;9.588;2023-07-31T05:46:31;20.50;;;19.10;;
8397;SDS011;4236;54.504;9.588;2023-07-31T05:48:59;21.37;;;19.87;;
8397;SDS011;4236;54.504;9.588;2023-07-31T05:51:27;18.70;;;17.40;;
8397;SDS011;4236;54.504;9.588;2023-07-31T05:53:55;19.30;;;17.90;;
8397;SDS011;4236;54.504;9.588;2023-07-31T05:56:22;20.27;;;18.87;;
8397;SDS011;4236;54.504;9.588;2023-07-31T05:58:50;19.07;;;18.07;;
8397;SDS011;4236;54.504;9.588;2023-07-31T06:01:17;19.73;;;18.43;;
8397;SDS011;4236;54.504;9.588;2023-07-31T06:03:46;19.97;;;18.57;;
8397;SDS011;4236;54.504;9.588;2023-07-31T06:06:14;18.27;;;17.27;;
8397;SDS011;4236;54.504;9.588;2023-07-31T06:08:42;18.20;;;17.10;;
8397;SDS011;4236;54.504;9.588;2023-07-31T06:11:09;17.90;;;16.83;;
8397;SDS011;4236;54.504;9.588;2023-07-31T06:13:37;17.00;;;16.10;;
8397;SDS011;4236;54.504;9.588;2023-07-31T06:16:06;17.10;;;16.20;;
8397;SDS011;4236;54.504;9.588;2023-07-31T06:18:33;17.40;;;16.33;;
8397;SDS011;4236;54.504;9.588;2023-07-31T06:21:02;15.57;;;14.83;;
8397;SDS011;4236;54.504;9.588;2023-07-31T06:23:30;15.90;;;15.13;;
8397;SDS011;4236;54.504;9.588;2023-07-31T06:25:57;17.13;;;15.80;;
8397;SDS011;4236;54.504;9.588;2023-07-31T06:28:27;15.77;;;15.03;;
8397;SDS011;4236;54.504;9.588;2023-07-31T06:30:54;16.63;;;15.60;;
8397;SDS011;4236;54.504;9.588;2023-07-31T06:33:22;15.97;;;15.27;;
8397;SDS011;4236;54.504;9.588;2023-07-31T06:35:49;16.90;;;15.90;;
8397;SDS011;4236;54.504;9.588;2023-07-31T06:38:23;16.40;;;15.50;;
8397;SDS011;4236;54.504;9.588;2023-07-31T06:40:51;16.63;;;15.50;;
8397;SDS011;4236;54.504;9.588;2023-07-31T06:43:19;15.10;;;14.30;;
8397;SDS011;4236;54.504;9.588;2023-07-31T06:45:47;15.50;;;14.60;;
8397;SDS011;4236;54.504;9.588;2023-07-31T06:48:18;14.03;;;13.43;;
8397;SDS011;4236;54.504;9.588;2023-07-31T06:50:46;14.60;;;14.00;;
8397;SDS011;4236;54.504;9.588;2023-07-31T06:53:13;14.03;;;13.40;;
8397;SDS011;4236;54.504;9.588;2023-07-31T06:55:42;14.50;;;13.40;;
8397;SDS011;4236;54.504;9.588;2023-07-31T06:58:10;12.97;;;12.37;;
8397;SDS011;4236;54.504;9.588;2023-07-31T07:00:37;12.60;;;12.20;;
8397;SDS011;4236;54.504;9.588;2023-07-31T07:03:04;11.80;;;11.40;;
8397;SDS011;4236;54.504;9.588;2023-07-31T07:05:32;11.67;;;11.10;;
8397;SDS011;4236;54.504;9.588;2023-07-31T07:08:00;13.17;;;12.57;;
8397;SDS011;4236;54.504;9.588;2023-07-31T07:10:27;12.73;;;12.20;;
8397;SDS011;4236;54.504;9.588;2023-07-31T07:12:56;11.83;;;11.23;;
8397;SDS011;4236;54.504;9.588;2023-07-31T07:15:23;11.13;;;10.70;;
8397;SDS011;4236;54.504;9.588;2023-07-31T07:17:51;11.23;;;10.83;;
8397;SDS011;4236;54.504;9.588;2023-07-31T07:20:18;11.70;;;11.10;;
8397;SDS011;4236;54.504;9.588;2023-07-31T07:22:46;11.37;;;10.87;;
8397;SDS011;4236;54.504;9.588;2023-07-31T07:25:14;11.90;;;11.40;;
8397;SDS011;4236;54.504;9.588;2023-07-31T07:27:41;10.83;;;10.43;;
8397;SDS011;4236;54.504;9.588;2023-07-31T07:30:10;11.83;;;11.20;;
8397;SDS011;4236;54.504;9.588;2023-07-31T07:32:38;11.40;;;10.90;;
8397;SDS011;4236;54.504;9.588;2023-07-31T07:35:06;11.97;;;11.07;;
8397;SDS011;4236;54.504;9.588;2023-07-31T07:37:34;12.43;;;11.57;;
8397;SDS011;4236;54.504;9.588;2023-07-31T07:40:01;11.70;;;11.10;;
8397;SDS011;4236;54.504;9.588;2023-07-31T07:42:29;12.90;;;12.20;;
8397;SDS011;4236;54.504;9.588;2023-07-31T07:44:56;11.70;;;11.10;;
8397;SDS011;4236;54.504;9.588;2023-07-31T07:47:25;11.23;;;10.63;;
8397;SDS011;4236;54.504;9.588;2023-07-31T07:49:54;12.70;;;12.10;;
8397;SDS011;4236;54.504;9.588;2023-07-31T07:52:22;10.70;;;10.40;;
8397;SDS011;4236;54.504;9.588;2023-07-31T07:54:49;11.40;;;10.83;;
8397;SDS011;4236;54.504;9.588;2023-07-31T07:57:17;11.60;;;11.10;;
8397;SDS011;4236;54.504;9.588;2023-07-31T07:59:45;12.30;;;11.57;;
8397;SDS011;4236;54.504;9.588;2023-07-31T08:02:12;11.57;;;11.00;;
8397;SDS011;4236;54.504;9.588;2023-07-31T08:04:41;11.43;;;10.93;;
8397;SDS011;4236;54.504;9.588;2023-07-31T08:07:10;10.80;;;10.40;;
8397;SDS011;4236;54.504;9.588;2023-07-31T08:09:37;11.80;;;11.20;;
8397;SDS011;4236;54.504;9.588;2023-07-31T08:12:05;12.87;;;12.07;;
8397;SDS011;4236;54.504;9.588;2023-07-31T08:14:33;13.73;;;12.50;;
8397;SDS011;4236;54.504;9.588;2023-07-31T08:17:02;24.17;;;21.27;;
8397;SDS011;4236;54.504;9.588;2023-07-31T08:19:30;44.63;;;23.47;;
8397;SDS011;4236;54.504;9.588;2023-07-31T08:24:23;28.03;;;25.73;;
8397;SDS011;4236;54.504;9.588;2023-07-31T08:26:51;23.67;;;22.00;;
8397;SDS011;4236;54.504;9.588;2023-07-31T08:29:19;24.13;;;22.50;;
8397;SDS011;4236;54.504;9.588;2023-07-31T08:31:47;20.97;;;19.63;;
8397;SDS011;4236;54.504;9.588;2023-07-31T08:34:14;23.07;;;21.70;;
8397;SDS011;4236;54.504;9.588;2023-07-31T08:36:41;21.93;;;20.83;;
8397;SDS011;4236;54.504;9.588;2023-07-31T08:39:09;21.63;;;20.63;;
8397;SDS011;4236;54.504;9.588;2023-07-31T08:41:38;20.93;;;20.13;;
8397;SDS011;4236;54.504;9.588;2023-07-31T08:44:06;21.47;;;20.53;;
8397;SDS011;4236;54.504;9.588;2023-07-31T08:46:34;19.90;;;19.00;;
8397;SDS011;4236;54.504;9.588;2023-07-31T08:49:03;19.07;;;18.27;;
8397;SDS011;4236;54.504;9.588;2023-07-31T08:51:33;19.07;;;18.30;;
8397;SDS011;4236;54.504;9.588;2023-07-31T08:54:01;19.43;;;18.63;;
8397;SDS011;4236;54.504;9.588;2023-07-31T08:56:30;18.90;;;18.20;;
8397;SDS011;4236;54.504;9.588;2023-07-31T08:59:00;18.83;;;17.93;;
8397;SDS011;4236;54.504;9.588;2023-07-31T09:01:30;18.93;;;18.13;;
8397;SDS011;4236;54.504;9.588;2023-07-31T09:03:58;18.73;;;17.93;;
8397;SDS011;4236;54.504;9.588;2023-07-31T09:06:29;19.40;;;18.40;;
8397;SDS011;4236;54.504;9.588;2023-07-31T09:08:57;19.60;;;18.67;;
8397;SDS011;4236;54.504;9.588;2023-07-31T09:11:25;21.00;;;20.00;;
8397;SDS011;4236;54.504;9.588;2023-07-31T09:13:53;21.97;;;20.77;;
8397;SDS011;4236;54.504;9.588;2023-07-31T09:16:28;21.40;;;20.30;;
8397;SDS011;4236;54.504;9.588;2023-07-31T09:18:58;22.50;;;20.70;;
8397;SDS011;4236;54.504;9.588;2023-07-31T09:21:28;21.87;;;20.67;;
8397;SDS011;4236;54.504;9.588;2023-07-31T09:23:56;22.13;;;21.20;;
8397;SDS011;4236;54.504;9.588;2023-07-31T09:26:31;23.03;;;21.87;;
8397;SDS011;4236;54.504;9.588;2023-07-31T09:28:59;23.20;;;22.00;;
8397;SDS011;4236;54.504;9.588;2023-07-31T09:31:37;22.47;;;21.43;;
8397;SDS011;4236;54.504;9.588;2023-07-31T09:34:05;21.50;;;20.60;;
8397;SDS011;4236;54.504;9.588;2023-07-31T09:36:38;21.80;;;20.90;;
8397;SDS011;4236;54.504;9.588;2023-07-31T09:39:08;22.03;;;20.83;;
8397;SDS011;4236;54.504;9.588;2023-07-31T09:41:36;22.80;;;21.60;;
8397;SDS011;4236;54.504;9.588;2023-07-31T09:44:04;22.77;;;21.60;;
8397;SDS011;4236;54.504;9.588;2023-07-31T09:46:31;23.00;;;21.60;;
8397;SDS011;4236;54.504;9.588;2023-07-31T09:49:07;22.60;;;21.40;;
8397;SDS011;4236;54.504;9.588;2023-07-31T09:51:36;21.50;;;20.40;;
8397;SDS011;4236;54.504;9.588;2023-07-31T09:54:10;22.60;;;21.47;;
8397;SDS011;4236;54.504;9.588;2023-07-31T09:56:42;22.30;;;21.30;;
8397;SDS011;4236;54.504;9.588;2023-07-31T09:59:13;23.60;;;22.47;;
8397;SDS011;4236;54.504;9.588;2023-07-31T10:01:41;22.90;;;21.67;;
8397;SDS011;4236;54.504;9.588;2023-07-31T10:04:11;22.50;;;21.60;;
8397;SDS011;4236;54.504;9.588;2023-07-31T10:06:39;21.67;;;20.80;;
8397;SDS011;4236;54.504;9.588;2023-07-31T10:09:08;22.70;;;21.70;;
8397;SDS011;4236;54.504;9.588;2023-07-31T10:11:38;23.20;;;22.00;;
8397;SDS011;4236;54.504;9.588;2023-07-31T10:14:06;23.03;;;21.83;;
8397;SDS011;4236;54.504;9.588;2023-07-31T10:16:34;22.03;;;21.13;;
8397;SDS011;4236;54.504;9.588;2023-07-31T10:19:02;24.10;;;22.27;;
8397;SDS011;4236;54.504;9.588;2023-07-31T10:21:31;20.73;;;19.93;;
8397;SDS011;4236;54.504;9.588;2023-07-31T10:24:01;20.40;;;19.57;;
8397;SDS011;4236;54.504;9.588;2023-07-31T10:26:30;21.07;;;20.23;;
8397;SDS011;4236;54.504;9.588;2023-07-31T10:28:58;21.87;;;20.97;;
8397;SDS011;4236;54.504;9.588;2023-07-31T10:31:26;21.33;;;20.53;;
8397;SDS011;4236;54.504;9.588;2023-07-31T10:33:54;22.37;;;21.47;;
8397;SDS011;4236;54.504;9.588;2023-07-31T10:36:21;21.90;;;20.90;;
8397;SDS011;4236;54.504;9.588;2023-07-31T10:38:50;22.87;;;21.93;;
8397;SDS011;4236;54.504;9.588;2023-07-31T10:41:18;22.00;;;20.97;;
8397;SDS011;4236;54.504;9.588;2023-07-31T10:43:46;22.80;;;21.80;;
8397;SDS011;4236;54.504;9.588;2023-07-31T10:46:13;21.50;;;20.60;;
8397;SDS011;4236;54.504;9.588;2023-07-31T10:48:41;21.50;;;20.70;;
8397;SDS011;4236;54.504;9.588;2023-07-31T10:51:09;22.93;;;21.80;;
8397;SDS011;4236;54.504;9.588;2023-07-31T10:53:38;23.00;;;21.80;;
8397;SDS011;4236;54.504;9.588;2023-07-31T10:56:08;22.73;;;21.47;;
8397;SDS011;4236;54.504;9.588;2023-07-31T10:58:38;23.30;;;21.87;;
8397;SDS011;4236;54.504;9.588;2023-07-31T11:01:06;21.23;;;20.33;;
8397;SDS011;4236;54.504;9.588;2023-07-31T11:03:41;21.97;;;21.03;;
8397;SDS011;4236;54.504;9.588;2023-07-31T11:06:09;21.17;;;20.17;;
8397;SDS011;4236;54.504;9.588;2023-07-31T11:08:41;21.20;;;20.10;;
8397;SDS011;4236;54.504;9.588;2023-07-31T11:11:10;20.70;;;19.90;;
8397;SDS011;4236;54.504;9.588;2023-07-31T11:13:42;20.80;;;19.90;;
8397;SDS011;4236;54.504;9.588;2023-07-31T11:16:10;21.20;;;20.20;;
8397;SDS011;4236;54.504;9.588;2023-07-31T11:18:39;21.30;;;20.40;;
8397;SDS011;4236;54.504;9.588;2023-07-31T11:21:06;21.27;;;20.37;;
8397;SDS011;4236;54.504;9.588;2023-07-31T11:23:36;21.17;;;20.27;;
8397;SDS011;4236;54.504;9.588;2023-07-31T11:26:05;22.47;;;21.40;;
8397;SDS011;4236;54.504;9.588;2023-07-31T11:28:34;21.57;;;20.57;;
8397;SDS011;4236;54.504;9.588;2023-07-31T11:31:02;21.13;;;20.13;;
8397;SDS011;4236;54.504;9.588;2023-07-31T11:33:30;20.30;;;19.50;;
8397;SDS011;4236;54.504;9.588;2023-07-31T11:35:58;21.47;;;20.43;;
8397;SDS011;4236;54.504;9.588;2023-07-31T11:38:26;22.27;;;21.37;;
8397;SDS011;4236;54.504;9.588;2023-07-31T11:40:55;22.53;;;21.53;;
8397;SDS011;4236;54.504;9.588;2023-07-31T11:43:23;22.23;;;21.33;;
8397;SDS011;4236;54.504;9.588;2023-07-31T11:45:52;21.70;;;20.80;;
8397;SDS011;4236;54.504;9.588;2023-07-31T11:48:21;21.53;;;20.60;;
8397;SDS011;4236;54.504;9.588;2023-07-31T11:50:49;21.13;;;20.33;;
8397;SDS011;4236;54.504;9.588;2023-07-31T11:53:18;21.33;;;20.40;;
8397;SDS011;4236;54.504;9.588;2023-07-31T11:55:48;21.67;;;20.87;;
8397;SDS011;4236;54.504;9.588;2023-07-31T11:58:15;21.60;;;20.70;;
8397;SDS011;4236;54.504;9.588;2023-07-31T12:00:44;21.87;;;21.03;;
8397;SDS011;4236;54.504;9.588;2023-07-31T12:03:13;21.20;;;20.40;;
8397;SDS011;4236;54.504;9.588;2023-07-31T12:05:41;20.60;;;19.87;;
8397;SDS011;4236;54.504;9.588;2023-07-31T12:08:08;21.67;;;20.87;;
8397;SDS011;4236;54.504;9.588;2023-07-31T12:10:36;21.70;;;20.90;;
8397;SDS011;4236;54.504;9.588;2023-07-31T12:13:04;21.20;;;20.40;;
8397;SDS011;4236;54.504;9.588;2023-07-31T12:15:33;21.50;;;20.70;;
8397;SDS011;4236;54.504;9.588;2023-07-31T12:18:04;20.20;;;19.50;;
8397;SDS011;4236;54.504;9.588;2023-07-31T12:20:34;20.80;;;19.90;;
8397;SDS011;4236;54.504;9.588;2023-07-31T12:23:02;20.60;;;19.80;;
8397;SDS011;4236;54.504;9.588;2023-07-31T12:25:32;20.50;;;19.80;;
8397;SDS011;4236;54.504;9.588;2023-07-31T12:28:03;21.00;;;20.10;;
8397;SDS011;4236;54.504;9.588;2023-07-31T12:30:32;20.87;;;20.10;;
8397;SDS011;4236;54.504;9.588;2023-07-31T12:33:03;21.00;;;20.20;;
8397;SDS011;4236;54.504;9.588;2023-07-31T12:35:36;20.27;;;19.57;;
8397;SDS011;4236;54.504;9.588;2023-07-31T12:38:04;20.70;;;19.90;;
8397;SDS011;4236;54.504;9.588;2023-07-31T12:40:32;21.03;;;20.33;;
8397;SDS011;4236;54.504;9.588;2023-07-31T12:43:00;20.30;;;19.60;;
8397;SDS011;4236;54.504;9.588;2023-07-31T12:45:28;20.40;;;19.60;;
8397;SDS011;4236;54.504;9.588;2023-07-31T12:47:56;20.53;;;19.80;;
8397;SDS011;4236;54.504;9.588;2023-07-31T12:50:24;21.17;;;20.17;;
8397;SDS011;4236;54.504;9.588;2023-07-31T12:52:53;20.70;;;19.90;;
8397;SDS011;4236;54.504;9.588;2023-07-31T12:55:21;21.33;;;20.33;;
8397;SDS011;4236;54.504;9.588;2023-07-31T12:57:49;21.77;;;20.97;;
8397;SDS011;4236;54.504;9.588;2023-07-31T13:00:16;21.80;;;21.00;;
8397;SDS011;4236;54.504;9.588;2023-07-31T13:02:44;20.87;;;19.90;;
8397;SDS011;4236;54.504;9.588;2023-07-31T13:05:12;20.70;;;19.80;;
8397;SDS011;4236;54.504;9.588;2023-07-31T13:07:40;20.03;;;19.23;;
8397;SDS011;4236;54.504;9.588;2023-07-31T13:10:09;21.33;;;20.53;;
8397;SDS011;4236;54.504;9.588;2023-07-31T13:12:36;21.10;;;20.13;;
8397;SDS011;4236;54.504;9.588;2023-07-31T13:15:06;20.90;;;20.10;;
8397;SDS011;4236;54.504;9.588;2023-07-31T13:17:33;20.30;;;19.27;;
8397;SDS011;4236;54.504;9.588;2023-07-31T13:20:01;20.93;;;20.13;;
8397;SDS011;4236;54.504;9.588;2023-07-31T13:22:29;21.00;;;20.20;;
8397;SDS011;4236;54.504;9.588;2023-07-31T13:24:57;21.20;;;20.40;;
8397;SDS011;4236;54.504;9.588;2023-07-31T13:27:25;20.63;;;19.83;;
8397;SDS011;4236;54.504;9.588;2023-07-31T13:29:53;21.90;;;21.00;;
8397;SDS011;4236;54.504;9.588;2023-07-31T13:32:21;20.77;;;19.97;;
8397;SDS011;4236;54.504;9.588;2023-07-31T13:34:49;21.90;;;21.10;;
8397;SDS011;4236;54.504;9.588;2023-07-31T13:37:16;22.07;;;21.07;;
8397;SDS011;4236;54.504;9.588;2023-07-31T13:39:44;22.60;;;21.60;;
8397;SDS011;4236;54.504;9.588;2023-07-31T13:42:11;20.87;;;19.97;;
8397;SDS011;4236;54.504;9.588;2023-07-31T13:44:41;20.10;;;19.37;;
8397;SDS011;4236;54.504;9.588;2023-07-31T13:47:09;20.57;;;19.80;;
8397;SDS011;4236;54.504;9.588;2023-07-31T13:49:37;21.13;;;20.33;;
8397;SDS011;4236;54.504;9.588;2023-07-31T13:52:05;21.23;;;20.03;;
8397;SDS011;4236;54.504;9.588;2023-07-31T13:54:33;22.20;;;21.20;;
8397;SDS011;4236;54.504;9.588;2023-07-31T13:57:00;22.10;;;21.20;;
8397;SDS011;4236;54.504;9.588;2023-07-31T13:59:27;21.17;;;20.37;;
8397;SDS011;4236;54.504;9.588;2023-07-31T14:01:57;21.60;;;20.60;;
8397;SDS011;4236;54.504;9.588;2023-07-31T14:04:24;21.30;;;20.30;;
8397;SDS011;4236;54.504;9.588;2023-07-31T14:06:51;21.23;;;20.33;;
8397;SDS011;4236;54.504;9.588;2023-07-31T14:09:18;20.97;;;20.27;;
8397;SDS011;4236;54.504;9.588;2023-07-31T14:11:46;20.90;;;20.10;;
8397;SDS011;4236;54.504;9.588;2023-07-31T14:14:13;20.20;;;19.50;;
8397;SDS011;4236;54.504;9.588;2023-07-31T14:16:41;21.90;;;21.10;;
8397;SDS011;4236;54.504;9.588;2023-07-31T14:19:10;20.20;;;19.40;;
8397;SDS011;4236;54.504;9.588;2023-07-31T14:21:38;21.30;;;20.20;;
8397;SDS011;4236;54.504;9.588;2023-07-31T14:24:05;20.27;;;19.47;;
8397;SDS011;4236;54.504;9.588;2023-07-31T14:26:33;19.63;;;18.93;;
8397;SDS011;4236;54.504;9.588;2023-07-31T14:29:01;21.33;;;20.53;;
8397;SDS011;4236;54.504;9.588;2023-07-31T14:31:28;20.07;;;19.37;;
8397;SDS011;4236;54.504;9.588;2023-07-31T14:33:56;20.37;;;19.57;;
8397;SDS011;4236;54.504;9.588;2023-07-31T14:36:25;20.23;;;19.43;;
8397;SDS011;4236;54.504;9.588;2023-07-31T14:38:52;20.63;;;19.90;;
8397;SDS011;4236;54.504;9.588;2023-07-31T14:41:20;20.10;;;19.40;;
8397;SDS011;4236;54.504;9.588;2023-07-31T14:43:47;19.53;;;18.73;;
8397;SDS011;4236;54.504;9.588;2023-07-31T14:46:15;19.60;;;19.00;;
8397;SDS011;4236;54.504;9.588;2023-07-31T14:48:42;19.73;;;19.03;;
8397;SDS011;4236;54.504;9.588;2023-07-31T14:51:10;18.93;;;18.33;;
8397;SDS011;4236;54.504;9.588;2023-07-31T14:53:39;19.23;;;18.63;;
8397;SDS011;4236;54.504;9.588;2023-07-31T14:56:06;18.53;;;17.93;;